sensor_id;sensor_type;location;lat;lon;timestamp;P1;durP1;ratioP1;P2;durP2;ratioP2
64894;SDS011;51588;53.702;10.208;2022-10-16T00:02:03;4.90;;;3.73;;
64894;SDS011;51588;53.702;10.208;2022-10-16T00:04:29;3.87;;;3.47;;
64894;SDS011;51588;53.702;10.208;2022-10-16T00:06:57;4.13;;;3.47;;
64894;SDS011;51588;53.702;10.208;2022-10-16T00:09:23;3.17;;;2.90;;
64894;SDS011;51588;53.702;10.208;2022-10-16T00:11:50;3.67;;;3.33;;
64894;SDS011;51588;53.702;10.208;2022-10-16T00:14:16;3.50;;;3.20;;
64894;SDS011;51588;53.702;10.208;2022-10-16T00:16:42;3.80;;;3.43;;
64894;SDS011;51588;53.702;10.208;2022-10-16T00:19:09;4.17;;;3.77;;
64894;SDS011;51588;53.702;10.208;2022-10-16T00:21:35;3.30;;;3.00;;
64894;SDS011;51588;53.702;10.208;2022-10-16T00:24:04;3.20;;;2.93;;
64894;SDS011;51588;53.702;10.208;2022-10-16T00:26:32;3.40;;;3.10;;
64894;SDS011;51588;53.702;10.208;2022-10-16T00:28:58;3.50;;;3.10;;
64894;SDS011;51588;53.702;10.208;2022-10-16T00:31:25;3.60;;;3.30;;
64894;SDS011;51588;53.702;10.208;2022-10-16T00:33:52;3.50;;;3.20;;
64894;SDS011;51588;53.702;10.208;2022-10-16T00:36:19;3.73;;;3.43;;
64894;SDS011;51588;53.702;10.208;2022-10-16T00:38:46;3.73;;;3.10;;
64894;SDS011;51588;53.702;10.208;2022-10-16T00:41:15;3.50;;;3.20;;
64894;SDS011;51588;53.702;10.208;2022-10-16T00:43:42;3.80;;;3.40;;
64894;SDS011;51588;53.702;10.208;2022-10-16T00:46:10;3.60;;;3.30;;
64894;SDS011;51588;53.702;10.208;2022-10-16T00:48:39;3.17;;;2.87;;
64894;SDS011;51588;53.702;10.208;2022-10-16T00:51:05;3.40;;;3.10;;
64894;SDS011;51588;53.702;10.208;2022-10-16T00:53:32;4.60;;;3.27;;
64894;SDS011;51588;53.702;10.208;2022-10-16T00:55:58;4.00;;;2.83;;
64894;SDS011;51588;53.702;10.208;2022-10-16T00:58:26;4.47;;;3.30;;
64894;SDS011;51588;53.702;10.208;2022-10-16T01:00:52;2.97;;;2.77;;
64894;SDS011;51588;53.702;10.208;2022-10-16T01:03:23;3.33;;;2.80;;
64894;SDS011;51588;53.702;10.208;2022-10-16T01:05:51;3.53;;;3.23;;
64894;SDS011;51588;53.702;10.208;2022-10-16T01:08:22;3.07;;;2.80;;
64894;SDS011;51588;53.702;10.208;2022-10-16T01:10:52;4.33;;;2.93;;
64894;SDS011;51588;53.702;10.208;2022-10-16T01:13:21;2.67;;;2.47;;
64894;SDS011;51588;53.702;10.208;2022-10-16T01:15:50;3.57;;;2.80;;
64894;SDS011;51588;53.702;10.208;2022-10-16T01:18:21;2.70;;;2.50;;
64894;SDS011;51588;53.702;10.208;2022-10-16T01:20:50;3.23;;;2.90;;
64894;SDS011;51588;53.702;10.208;2022-10-16T01:23:22;3.20;;;2.90;;
64894;SDS011;51588;53.702;10.208;2022-10-16T01:26:06;2.93;;;2.73;;
64894;SDS011;51588;53.702;10.208;2022-10-16T01:28:38;2.87;;;2.60;;
64894;SDS011;51588;53.702;10.208;2022-10-16T01:31:05;2.80;;;2.60;;
64894;SDS011;51588;53.702;10.208;2022-10-16T01:33:34;2.97;;;2.67;;
64894;SDS011;51588;53.702;10.208;2022-10-16T01:36:02;3.10;;;2.80;;
64894;SDS011;51588;53.702;10.208;2022-10-16T01:38:33;2.90;;;2.50;;
64894;SDS011;51588;53.702;10.208;2022-10-16T01:41:01;3.30;;;3.00;;
64894;SDS011;51588;53.702;10.208;2022-10-16T01:43:31;2.93;;;2.73;;
64894;SDS011;51588;53.702;10.208;2022-10-16T01:46:01;3.47;;;3.17;;
64894;SDS011;51588;53.702;10.208;2022-10-16T01:48:27;2.83;;;2.47;;
64894;SDS011;51588;53.702;10.208;2022-10-16T01:50:55;3.10;;;2.80;;
64894;SDS011;51588;53.702;10.208;2022-10-16T01:53:23;2.60;;;2.40;;
64894;SDS011;51588;53.702;10.208;2022-10-16T01:55:50;2.53;;;2.33;;
64894;SDS011;51588;53.702;10.208;2022-10-16T01:58:18;3.17;;;2.50;;
64894;SDS011;51588;53.702;10.208;2022-10-16T02:00:45;2.70;;;2.50;;
64894;SDS011;51588;53.702;10.208;2022-10-16T02:03:14;5.30;;;2.47;;
64894;SDS011;51588;53.702;10.208;2022-10-16T02:05:42;2.50;;;2.30;;
64894;SDS011;51588;53.702;10.208;2022-10-16T02:08:11;2.80;;;2.60;;
64894;SDS011;51588;53.702;10.208;2022-10-16T02:10:37;2.80;;;2.60;;
64894;SDS011;51588;53.702;10.208;2022-10-16T02:13:05;2.50;;;2.30;;
64894;SDS011;51588;53.702;10.208;2022-10-16T02:15:36;2.90;;;2.20;;
64894;SDS011;51588;53.702;10.208;2022-10-16T02:18:02;2.90;;;2.33;;
64894;SDS011;51588;53.702;10.208;2022-10-16T02:20:32;2.60;;;2.40;;
64894;SDS011;51588;53.702;10.208;2022-10-16T02:23:00;3.50;;;2.87;;
64894;SDS011;51588;53.702;10.208;2022-10-16T02:25:29;2.90;;;2.60;;
64894;SDS011;51588;53.702;10.208;2022-10-16T02:27:57;2.60;;;2.40;;
64894;SDS011;51588;53.702;10.208;2022-10-16T02:30:28;4.07;;;2.57;;
64894;SDS011;51588;53.702;10.208;2022-10-16T02:32:55;2.70;;;2.50;;
64894;SDS011;51588;53.702;10.208;2022-10-16T02:35:22;2.70;;;2.50;;
64894;SDS011;51588;53.702;10.208;2022-10-16T02:37:50;2.57;;;2.37;;
64894;SDS011;51588;53.702;10.208;2022-10-16T02:40:17;2.50;;;2.30;;
64894;SDS011;51588;53.702;10.208;2022-10-16T02:42:44;2.40;;;2.20;;
64894;SDS011;51588;53.702;10.208;2022-10-16T02:45:10;2.13;;;2.03;;
64894;SDS011;51588;53.702;10.208;2022-10-16T02:47:37;2.50;;;2.27;;
64894;SDS011;51588;53.702;10.208;2022-10-16T02:50:03;2.50;;;2.30;;
64894;SDS011;51588;53.702;10.208;2022-10-16T02:52:30;2.60;;;2.40;;
64894;SDS011;51588;53.702;10.208;2022-10-16T02:54:57;2.90;;;2.60;;
64894;SDS011;51588;53.702;10.208;2022-10-16T02:57:24;4.13;;;2.50;;
64894;SDS011;51588;53.702;10.208;2022-10-16T02:59:50;2.43;;;2.20;;
64894;SDS011;51588;53.702;10.208;2022-10-16T03:02:16;2.53;;;2.33;;
64894;SDS011;51588;53.702;10.208;2022-10-16T03:04:43;2.40;;;2.10;;
64894;SDS011;51588;53.702;10.208;2022-10-16T03:07:09;2.70;;;2.47;;
64894;SDS011;51588;53.702;10.208;2022-10-16T03:09:36;2.40;;;2.10;;
64894;SDS011;51588;53.702;10.208;2022-10-16T03:12:03;2.70;;;2.37;;
64894;SDS011;51588;53.702;10.208;2022-10-16T03:14:30;2.30;;;2.10;;
64894;SDS011;51588;53.702;10.208;2022-10-16T03:16:56;2.47;;;2.17;;
64894;SDS011;51588;53.702;10.208;2022-10-16T03:19:22;2.10;;;1.90;;
64894;SDS011;51588;53.702;10.208;2022-10-16T03:21:49;2.70;;;2.37;;
64894;SDS011;51588;53.702;10.208;2022-10-16T03:24:15;2.27;;;2.07;;
64894;SDS011;51588;53.702;10.208;2022-10-16T03:26:41;2.33;;;2.10;;
64894;SDS011;51588;53.702;10.208;2022-10-16T03:29:09;2.60;;;2.40;;
64894;SDS011;51588;53.702;10.208;2022-10-16T03:31:35;2.20;;;2.00;;
64894;SDS011;51588;53.702;10.208;2022-10-16T03:34:02;2.30;;;2.10;;
64894;SDS011;51588;53.702;10.208;2022-10-16T03:36:28;2.70;;;2.50;;
64894;SDS011;51588;53.702;10.208;2022-10-16T03:38:54;2.40;;;2.20;;
64894;SDS011;51588;53.702;10.208;2022-10-16T03:41:21;2.77;;;2.10;;
64894;SDS011;51588;53.702;10.208;2022-10-16T03:43:47;2.50;;;2.10;;
64894;SDS011;51588;53.702;10.208;2022-10-16T03:46:14;2.50;;;2.03;;
64894;SDS011;51588;53.702;10.208;2022-10-16T03:48:41;2.33;;;2.13;;
64894;SDS011;51588;53.702;10.208;2022-10-16T03:51:07;2.63;;;2.23;;
64894;SDS011;51588;53.702;10.208;2022-10-16T03:53:33;2.23;;;1.90;;
64894;SDS011;51588;53.702;10.208;2022-10-16T03:56:00;2.50;;;2.30;;
64894;SDS011;51588;53.702;10.208;2022-10-16T03:58:26;2.57;;;2.13;;
64894;SDS011;51588;53.702;10.208;2022-10-16T04:00:55;1.90;;;1.80;;
64894;SDS011;51588;53.702;10.208;2022-10-16T04:03:23;2.53;;;2.20;;
64894;SDS011;51588;53.702;10.208;2022-10-16T04:05:49;2.73;;;2.13;;
64894;SDS011;51588;53.702;10.208;2022-10-16T04:08:15;2.50;;;2.17;;
64894;SDS011;51588;53.702;10.208;2022-10-16T04:10:42;1.93;;;1.83;;
64894;SDS011;51588;53.702;10.208;2022-10-16T04:13:08;2.90;;;2.13;;
64894;SDS011;51588;53.702;10.208;2022-10-16T04:15:34;2.40;;;1.97;;
64894;SDS011;51588;53.702;10.208;2022-10-16T04:18:01;2.20;;;2.00;;
64894;SDS011;51588;53.702;10.208;2022-10-16T04:20:28;2.37;;;2.10;;
64894;SDS011;51588;53.702;10.208;2022-10-16T04:22:55;1.90;;;1.80;;
64894;SDS011;51588;53.702;10.208;2022-10-16T04:25:21;2.30;;;2.10;;
64894;SDS011;51588;53.702;10.208;2022-10-16T04:27:47;2.23;;;1.93;;
64894;SDS011;51588;53.702;10.208;2022-10-16T04:30:14;1.70;;;1.60;;
64894;SDS011;51588;53.702;10.208;2022-10-16T04:32:40;4.60;;;2.20;;
64894;SDS011;51588;53.702;10.208;2022-10-16T04:35:07;2.83;;;1.90;;
64894;SDS011;51588;53.702;10.208;2022-10-16T04:37:35;2.07;;;1.90;;
64894;SDS011;51588;53.702;10.208;2022-10-16T04:40:01;2.40;;;1.80;;
64894;SDS011;51588;53.702;10.208;2022-10-16T04:42:27;2.10;;;1.90;;
64894;SDS011;51588;53.702;10.208;2022-10-16T04:44:54;2.13;;;1.80;;
64894;SDS011;51588;53.702;10.208;2022-10-16T04:47:20;2.50;;;2.30;;
64894;SDS011;51588;53.702;10.208;2022-10-16T04:49:46;2.10;;;1.90;;
64894;SDS011;51588;53.702;10.208;2022-10-16T04:52:13;1.70;;;1.60;;
64894;SDS011;51588;53.702;10.208;2022-10-16T04:54:40;2.30;;;2.10;;
64894;SDS011;51588;53.702;10.208;2022-10-16T04:57:06;2.90;;;2.20;;
64894;SDS011;51588;53.702;10.208;2022-10-16T04:59:33;2.23;;;2.03;;
64894;SDS011;51588;53.702;10.208;2022-10-16T05:01:59;2.17;;;1.90;;
64894;SDS011;51588;53.702;10.208;2022-10-16T05:04:25;1.97;;;1.77;;
64894;SDS011;51588;53.702;10.208;2022-10-16T05:06:52;2.57;;;1.80;;
64894;SDS011;51588;53.702;10.208;2022-10-16T05:09:18;2.00;;;1.80;;
64894;SDS011;51588;53.702;10.208;2022-10-16T05:11:46;1.80;;;1.70;;
64894;SDS011;51588;53.702;10.208;2022-10-16T05:14:12;1.87;;;1.77;;
64894;SDS011;51588;53.702;10.208;2022-10-16T05:16:38;2.00;;;1.90;;
64894;SDS011;51588;53.702;10.208;2022-10-16T05:19:04;2.00;;;1.80;;
64894;SDS011;51588;53.702;10.208;2022-10-16T05:21:31;1.73;;;1.63;;
64894;SDS011;51588;53.702;10.208;2022-10-16T05:23:57;2.80;;;2.20;;
64894;SDS011;51588;53.702;10.208;2022-10-16T05:26:23;1.80;;;1.70;;
64894;SDS011;51588;53.702;10.208;2022-10-16T05:28:51;1.97;;;1.83;;
64894;SDS011;51588;53.702;10.208;2022-10-16T05:31:17;2.73;;;2.00;;
64894;SDS011;51588;53.702;10.208;2022-10-16T05:33:44;1.77;;;1.67;;
64894;SDS011;51588;53.702;10.208;2022-10-16T05:36:10;1.70;;;1.60;;
64894;SDS011;51588;53.702;10.208;2022-10-16T05:38:37;2.13;;;1.87;;
64894;SDS011;51588;53.702;10.208;2022-10-16T05:41:04;1.80;;;1.60;;
64894;SDS011;51588;53.702;10.208;2022-10-16T05:43:31;2.20;;;2.00;;
64894;SDS011;51588;53.702;10.208;2022-10-16T05:45:59;2.43;;;1.70;;
64894;SDS011;51588;53.702;10.208;2022-10-16T05:48:26;2.40;;;2.20;;
64894;SDS011;51588;53.702;10.208;2022-10-16T05:50:56;2.10;;;1.70;;
64894;SDS011;51588;53.702;10.208;2022-10-16T05:53:23;2.23;;;2.03;;
64894;SDS011;51588;53.702;10.208;2022-10-16T05:55:53;1.67;;;1.57;;
64894;SDS011;51588;53.702;10.208;2022-10-16T05:58:20;1.87;;;1.67;;
64894;SDS011;51588;53.702;10.208;2022-10-16T06:00:52;1.70;;;1.60;;
64894;SDS011;51588;53.702;10.208;2022-10-16T06:03:19;2.23;;;1.70;;
64894;SDS011;51588;53.702;10.208;2022-10-16T06:05:46;1.77;;;1.67;;
64894;SDS011;51588;53.702;10.208;2022-10-16T06:08:12;1.70;;;1.57;;
64894;SDS011;51588;53.702;10.208;2022-10-16T06:10:38;1.93;;;1.70;;
64894;SDS011;51588;53.702;10.208;2022-10-16T06:13:05;2.53;;;1.97;;
64894;SDS011;51588;53.702;10.208;2022-10-16T06:15:31;2.50;;;1.87;;
64894;SDS011;51588;53.702;10.208;2022-10-16T06:17:57;1.80;;;1.70;;
64894;SDS011;51588;53.702;10.208;2022-10-16T06:20:25;2.60;;;1.87;;
64894;SDS011;51588;53.702;10.208;2022-10-16T06:22:52;1.63;;;1.50;;
64894;SDS011;51588;53.702;10.208;2022-10-16T06:25:18;2.30;;;2.10;;
64894;SDS011;51588;53.702;10.208;2022-10-16T06:27:44;3.30;;;1.97;;
64894;SDS011;51588;53.702;10.208;2022-10-16T06:30:10;1.63;;;1.53;;
64894;SDS011;51588;53.702;10.208;2022-10-16T06:32:37;1.93;;;1.67;;
64894;SDS011;51588;53.702;10.208;2022-10-16T06:35:03;1.90;;;1.80;;
64894;SDS011;51588;53.702;10.208;2022-10-16T06:37:31;1.80;;;1.70;;
64894;SDS011;51588;53.702;10.208;2022-10-16T06:39:57;1.90;;;1.70;;
64894;SDS011;51588;53.702;10.208;2022-10-16T06:42:25;2.47;;;1.77;;
64894;SDS011;51588;53.702;10.208;2022-10-16T06:44:51;1.77;;;1.40;;
64894;SDS011;51588;53.702;10.208;2022-10-16T06:47:18;1.70;;;1.60;;
64894;SDS011;51588;53.702;10.208;2022-10-16T06:49:44;2.37;;;1.93;;
64894;SDS011;51588;53.702;10.208;2022-10-16T06:52:10;2.80;;;2.00;;
64894;SDS011;51588;53.702;10.208;2022-10-16T06:54:38;1.83;;;1.67;;
64894;SDS011;51588;53.702;10.208;2022-10-16T06:57:04;1.80;;;1.70;;
64894;SDS011;51588;53.702;10.208;2022-10-16T06:59:31;4.33;;;1.70;;
64894;SDS011;51588;53.702;10.208;2022-10-16T07:01:57;2.00;;;1.80;;
64894;SDS011;51588;53.702;10.208;2022-10-16T07:04:24;2.30;;;1.60;;
64894;SDS011;51588;53.702;10.208;2022-10-16T07:06:50;2.00;;;1.80;;
64894;SDS011;51588;53.702;10.208;2022-10-16T07:09:17;2.03;;;1.63;;
64894;SDS011;51588;53.702;10.208;2022-10-16T07:11:44;3.00;;;1.90;;
64894;SDS011;51588;53.702;10.208;2022-10-16T07:14:12;1.60;;;1.50;;
64894;SDS011;51588;53.702;10.208;2022-10-16T07:16:40;3.80;;;1.80;;
64894;SDS011;51588;53.702;10.208;2022-10-16T07:19:07;2.27;;;1.73;;
64894;SDS011;51588;53.702;10.208;2022-10-16T07:21:34;2.50;;;1.90;;
64894;SDS011;51588;53.702;10.208;2022-10-16T07:24:01;2.60;;;1.80;;
64894;SDS011;51588;53.702;10.208;2022-10-16T07:26:28;2.60;;;1.87;;
64894;SDS011;51588;53.702;10.208;2022-10-16T07:28:56;3.87;;;1.53;;
64894;SDS011;51588;53.702;10.208;2022-10-16T07:31:23;2.43;;;1.90;;
64894;SDS011;51588;53.702;10.208;2022-10-16T07:33:49;1.90;;;1.70;;
64894;SDS011;51588;53.702;10.208;2022-10-16T07:36:17;3.03;;;1.63;;
64894;SDS011;51588;53.702;10.208;2022-10-16T07:38:43;1.70;;;1.60;;
64894;SDS011;51588;53.702;10.208;2022-10-16T07:41:10;1.90;;;1.73;;
64894;SDS011;51588;53.702;10.208;2022-10-16T07:43:37;3.00;;;1.77;;
64894;SDS011;51588;53.702;10.208;2022-10-16T07:46:05;3.10;;;1.70;;
64894;SDS011;51588;53.702;10.208;2022-10-16T07:48:32;2.93;;;1.60;;
64894;SDS011;51588;53.702;10.208;2022-10-16T07:50:58;2.57;;;1.90;;
64894;SDS011;51588;53.702;10.208;2022-10-16T07:53:25;3.00;;;1.73;;
64894;SDS011;51588;53.702;10.208;2022-10-16T07:55:52;3.30;;;1.80;;
64894;SDS011;51588;53.702;10.208;2022-10-16T07:58:18;3.27;;;1.73;;
64894;SDS011;51588;53.702;10.208;2022-10-16T08:00:44;1.73;;;1.60;;
64894;SDS011;51588;53.702;10.208;2022-10-16T08:03:12;2.07;;;1.90;;
64894;SDS011;51588;53.702;10.208;2022-10-16T08:05:38;3.30;;;2.10;;
64894;SDS011;51588;53.702;10.208;2022-10-16T08:08:04;2.13;;;1.70;;
64894;SDS011;51588;53.702;10.208;2022-10-16T08:10:31;2.30;;;1.70;;
64894;SDS011;51588;53.702;10.208;2022-10-16T08:12:57;2.13;;;1.93;;
64894;SDS011;51588;53.702;10.208;2022-10-16T08:15:24;2.83;;;1.87;;
64894;SDS011;51588;53.702;10.208;2022-10-16T08:17:54;2.50;;;1.50;;
64894;SDS011;51588;53.702;10.208;2022-10-16T08:20:22;2.97;;;1.83;;
64894;SDS011;51588;53.702;10.208;2022-10-16T08:22:48;3.83;;;1.70;;
64894;SDS011;51588;53.702;10.208;2022-10-16T08:25:15;6.00;;;1.80;;
64894;SDS011;51588;53.702;10.208;2022-10-16T08:27:41;4.70;;;1.93;;
64894;SDS011;51588;53.702;10.208;2022-10-16T08:30:08;4.13;;;1.60;;
64894;SDS011;51588;53.702;10.208;2022-10-16T08:32:34;4.10;;;1.73;;
64894;SDS011;51588;53.702;10.208;2022-10-16T08:35:01;2.90;;;1.80;;
64894;SDS011;51588;53.702;10.208;2022-10-16T08:37:30;2.70;;;1.60;;
64894;SDS011;51588;53.702;10.208;2022-10-16T08:39:57;1.90;;;1.70;;
64894;SDS011;51588;53.702;10.208;2022-10-16T08:42:29;2.80;;;1.57;;
64894;SDS011;51588;53.702;10.208;2022-10-16T08:45:08;1.97;;;1.63;;
64894;SDS011;51588;53.702;10.208;2022-10-16T08:47:43;4.10;;;2.10;;
64894;SDS011;51588;53.702;10.208;2022-10-16T08:50:11;2.20;;;1.83;;
64894;SDS011;51588;53.702;10.208;2022-10-16T08:52:40;3.20;;;1.60;;
64894;SDS011;51588;53.702;10.208;2022-10-16T08:55:08;1.73;;;1.60;;
64894;SDS011;51588;53.702;10.208;2022-10-16T08:57:42;3.53;;;1.80;;
64894;SDS011;51588;53.702;10.208;2022-10-16T09:00:12;3.63;;;1.70;;
64894;SDS011;51588;53.702;10.208;2022-10-16T09:02:40;5.10;;;1.77;;
64894;SDS011;51588;53.702;10.208;2022-10-16T09:05:18;3.07;;;2.30;;
64894;SDS011;51588;53.702;10.208;2022-10-16T09:07:49;10.27;;;2.00;;
64894;SDS011;51588;53.702;10.208;2022-10-16T09:10:21;2.70;;;1.57;;
64894;SDS011;51588;53.702;10.208;2022-10-16T09:12:51;2.70;;;2.00;;
64894;SDS011;51588;53.702;10.208;2022-10-16T09:15:21;3.00;;;1.60;;
64894;SDS011;51588;53.702;10.208;2022-10-16T09:17:51;2.43;;;1.57;;
64894;SDS011;51588;53.702;10.208;2022-10-16T09:20:20;3.50;;;1.83;;
64894;SDS011;51588;53.702;10.208;2022-10-16T09:22:51;3.20;;;2.00;;
64894;SDS011;51588;53.702;10.208;2022-10-16T09:25:20;6.87;;;2.30;;
64894;SDS011;51588;53.702;10.208;2022-10-16T09:27:48;6.80;;;2.20;;
64894;SDS011;51588;53.702;10.208;2022-10-16T09:30:16;6.70;;;2.40;;
64894;SDS011;51588;53.702;10.208;2022-10-16T09:32:43;12.80;;;3.37;;
64894;SDS011;51588;53.702;10.208;2022-10-16T09:35:11;7.70;;;3.10;;
64894;SDS011;51588;53.702;10.208;2022-10-16T09:37:39;10.93;;;3.00;;
64894;SDS011;51588;53.702;10.208;2022-10-16T09:40:11;9.73;;;2.80;;
64894;SDS011;51588;53.702;10.208;2022-10-16T09:42:38;8.70;;;3.20;;
64894;SDS011;51588;53.702;10.208;2022-10-16T09:45:05;21.57;;;3.40;;
64894;SDS011;51588;53.702;10.208;2022-10-16T09:47:31;24.00;;;4.37;;
64894;SDS011;51588;53.702;10.208;2022-10-16T09:50:03;21.33;;;5.63;;
64894;SDS011;51588;53.702;10.208;2022-10-16T09:52:31;53.13;;;6.77;;
64894;SDS011;51588;53.702;10.208;2022-10-16T09:54:58;43.90;;;7.33;;
64894;SDS011;51588;53.702;10.208;2022-10-16T09:57:26;34.53;;;6.70;;
64894;SDS011;51588;53.702;10.208;2022-10-16T09:59:53;33.53;;;6.50;;
64894;SDS011;51588;53.702;10.208;2022-10-16T10:02:23;38.77;;;7.43;;
64894;SDS011;51588;53.702;10.208;2022-10-16T10:04:52;33.13;;;6.77;;
64894;SDS011;51588;53.702;10.208;2022-10-16T10:07:21;41.40;;;8.30;;
64894;SDS011;51588;53.702;10.208;2022-10-16T10:09:49;34.43;;;8.10;;
64894;SDS011;51588;53.702;10.208;2022-10-16T10:12:17;33.67;;;7.37;;
64894;SDS011;51588;53.702;10.208;2022-10-16T10:14:46;33.77;;;6.40;;
64894;SDS011;51588;53.702;10.208;2022-10-16T10:17:14;37.60;;;6.83;;
64894;SDS011;51588;53.702;10.208;2022-10-16T10:19:42;30.57;;;7.23;;
64894;SDS011;51588;53.702;10.208;2022-10-16T10:22:17;28.63;;;6.97;;
64894;SDS011;51588;53.702;10.208;2022-10-16T10:24:43;27.97;;;6.60;;
64894;SDS011;51588;53.702;10.208;2022-10-16T10:27:11;24.83;;;5.97;;
64894;SDS011;51588;53.702;10.208;2022-10-16T10:29:43;25.53;;;6.50;;
64894;SDS011;51588;53.702;10.208;2022-10-16T10:32:16;22.13;;;5.57;;
64894;SDS011;51588;53.702;10.208;2022-10-16T10:34:51;18.27;;;4.50;;
64894;SDS011;51588;53.702;10.208;2022-10-16T10:37:24;17.37;;;4.70;;
64894;SDS011;51588;53.702;10.208;2022-10-16T10:39:53;19.20;;;4.40;;
64894;SDS011;51588;53.702;10.208;2022-10-16T10:42:23;14.40;;;4.13;;
64894;SDS011;51588;53.702;10.208;2022-10-16T10:45:00;17.53;;;4.20;;
64894;SDS011;51588;53.702;10.208;2022-10-16T10:47:31;11.57;;;3.00;;
64894;SDS011;51588;53.702;10.208;2022-10-16T10:50:04;16.80;;;3.83;;
64894;SDS011;51588;53.702;10.208;2022-10-16T10:52:34;13.13;;;3.10;;
64894;SDS011;51588;53.702;10.208;2022-10-16T10:55:08;8.23;;;2.90;;
64894;SDS011;51588;53.702;10.208;2022-10-16T10:57:37;8.27;;;2.97;;
64894;SDS011;51588;53.702;10.208;2022-10-16T11:00:11;9.70;;;3.10;;
64894;SDS011;51588;53.702;10.208;2022-10-16T11:02:44;13.27;;;3.57;;
64894;SDS011;51588;53.702;10.208;2022-10-16T11:07:58;9.53;;;2.90;;
64894;SDS011;51588;53.702;10.208;2022-10-16T11:10:27;5.60;;;2.90;;
64894;SDS011;51588;53.702;10.208;2022-10-16T11:12:55;11.77;;;3.10;;
64894;SDS011;51588;53.702;10.208;2022-10-16T11:15:23;14.50;;;3.37;;
64894;SDS011;51588;53.702;10.208;2022-10-16T11:17:53;9.43;;;3.33;;
64894;SDS011;51588;53.702;10.208;2022-10-16T11:20:21;9.90;;;2.90;;
64894;SDS011;51588;53.702;10.208;2022-10-16T11:22:50;7.60;;;3.60;;
64894;SDS011;51588;53.702;10.208;2022-10-16T11:25:18;5.57;;;2.50;;
64894;SDS011;51588;53.702;10.208;2022-10-16T11:27:47;9.30;;;2.60;;
64894;SDS011;51588;53.702;10.208;2022-10-16T11:30:24;5.00;;;2.30;;
64894;SDS011;51588;53.702;10.208;2022-10-16T11:33:00;6.40;;;2.50;;
64894;SDS011;51588;53.702;10.208;2022-10-16T11:35:32;8.80;;;2.43;;
64894;SDS011;51588;53.702;10.208;2022-10-16T11:38:01;7.80;;;2.73;;
64894;SDS011;51588;53.702;10.208;2022-10-16T11:40:29;8.93;;;2.03;;
64894;SDS011;51588;53.702;10.208;2022-10-16T11:43:00;6.20;;;2.50;;
64894;SDS011;51588;53.702;10.208;2022-10-16T11:45:29;8.97;;;2.40;;
64894;SDS011;51588;53.702;10.208;2022-10-16T11:48:01;7.03;;;2.33;;
64894;SDS011;51588;53.702;10.208;2022-10-16T11:50:31;12.13;;;2.23;;
64894;SDS011;51588;53.702;10.208;2022-10-16T11:53:01;6.30;;;2.50;;
64894;SDS011;51588;53.702;10.208;2022-10-16T11:55:30;7.63;;;2.20;;
64894;SDS011;51588;53.702;10.208;2022-10-16T11:57:58;4.33;;;2.07;;
64894;SDS011;51588;53.702;10.208;2022-10-16T12:00:28;4.73;;;2.03;;
64894;SDS011;51588;53.702;10.208;2022-10-16T12:02:58;6.33;;;2.57;;
64894;SDS011;51588;53.702;10.208;2022-10-16T12:05:30;5.33;;;2.30;;
64894;SDS011;51588;53.702;10.208;2022-10-16T12:08:07;5.43;;;2.50;;
64894;SDS011;51588;53.702;10.208;2022-10-16T12:10:34;6.67;;;2.33;;
64894;SDS011;51588;53.702;10.208;2022-10-16T12:13:02;5.90;;;1.90;;
64894;SDS011;51588;53.702;10.208;2022-10-16T12:15:29;4.73;;;2.17;;
64894;SDS011;51588;53.702;10.208;2022-10-16T12:17:56;6.40;;;2.07;;
64894;SDS011;51588;53.702;10.208;2022-10-16T12:20:26;4.87;;;2.33;;
64894;SDS011;51588;53.702;10.208;2022-10-16T12:22:57;6.03;;;2.47;;
64894;SDS011;51588;53.702;10.208;2022-10-16T12:25:25;5.13;;;2.20;;
64894;SDS011;51588;53.702;10.208;2022-10-16T12:28:00;5.63;;;2.23;;
64894;SDS011;51588;53.702;10.208;2022-10-16T12:30:27;4.30;;;2.03;;
64894;SDS011;51588;53.702;10.208;2022-10-16T12:32:55;7.53;;;2.37;;
64894;SDS011;51588;53.702;10.208;2022-10-16T12:35:22;12.40;;;2.40;;
64894;SDS011;51588;53.702;10.208;2022-10-16T12:37:49;3.93;;;2.00;;
64894;SDS011;51588;53.702;10.208;2022-10-16T12:40:24;5.63;;;1.93;;
64894;SDS011;51588;53.702;10.208;2022-10-16T12:42:51;6.03;;;2.00;;
64894;SDS011;51588;53.702;10.208;2022-10-16T12:45:25;5.90;;;1.73;;
64894;SDS011;51588;53.702;10.208;2022-10-16T12:47:53;4.77;;;1.70;;
64894;SDS011;51588;53.702;10.208;2022-10-16T12:50:27;3.00;;;1.70;;
64894;SDS011;51588;53.702;10.208;2022-10-16T12:52:53;6.30;;;1.83;;
64894;SDS011;51588;53.702;10.208;2022-10-16T12:55:21;4.50;;;2.17;;
64894;SDS011;51588;53.702;10.208;2022-10-16T12:57:56;4.67;;;1.87;;
64894;SDS011;51588;53.702;10.208;2022-10-16T13:00:26;3.03;;;1.80;;
64894;SDS011;51588;53.702;10.208;2022-10-16T13:03:05;5.30;;;2.17;;
64894;SDS011;51588;53.702;10.208;2022-10-16T13:05:43;3.80;;;1.77;;
64894;SDS011;51588;53.702;10.208;2022-10-16T13:08:16;3.77;;;1.90;;
64894;SDS011;51588;53.702;10.208;2022-10-16T13:10:51;3.03;;;1.70;;
64894;SDS011;51588;53.702;10.208;2022-10-16T13:13:26;2.80;;;1.77;;
64894;SDS011;51588;53.702;10.208;2022-10-16T13:15:58;3.30;;;1.80;;
64894;SDS011;51588;53.702;10.208;2022-10-16T13:18:28;2.63;;;1.53;;
64894;SDS011;51588;53.702;10.208;2022-10-16T13:23:42;2.03;;;1.30;;
64894;SDS011;51588;53.702;10.208;2022-10-16T13:26:15;2.53;;;1.40;;
64894;SDS011;51588;53.702;10.208;2022-10-16T13:28:43;3.40;;;1.70;;
64894;SDS011;51588;53.702;10.208;2022-10-16T13:31:11;3.37;;;1.67;;
64894;SDS011;51588;53.702;10.208;2022-10-16T13:33:40;7.77;;;1.97;;
64894;SDS011;51588;53.702;10.208;2022-10-16T13:36:17;5.37;;;1.73;;
64894;SDS011;51588;53.702;10.208;2022-10-16T13:38:44;5.43;;;1.70;;
64894;SDS011;51588;53.702;10.208;2022-10-16T13:41:13;5.17;;;1.60;;
64894;SDS011;51588;53.702;10.208;2022-10-16T13:43:41;7.50;;;1.90;;
64894;SDS011;51588;53.702;10.208;2022-10-16T13:46:11;3.77;;;1.50;;
64894;SDS011;51588;53.702;10.208;2022-10-16T13:48:38;3.07;;;1.40;;
64894;SDS011;51588;53.702;10.208;2022-10-16T13:51:06;4.63;;;1.53;;
64894;SDS011;51588;53.702;10.208;2022-10-16T13:53:33;4.03;;;1.73;;
64894;SDS011;51588;53.702;10.208;2022-10-16T13:56:01;3.20;;;1.50;;
64894;SDS011;51588;53.702;10.208;2022-10-16T13:58:28;3.60;;;1.50;;
64894;SDS011;51588;53.702;10.208;2022-10-16T14:00:57;3.20;;;1.50;;
64894;SDS011;51588;53.702;10.208;2022-10-16T14:03:24;3.80;;;1.60;;
64894;SDS011;51588;53.702;10.208;2022-10-16T14:05:51;2.97;;;1.70;;
64894;SDS011;51588;53.702;10.208;2022-10-16T14:08:18;3.40;;;1.30;;
64894;SDS011;51588;53.702;10.208;2022-10-16T14:10:47;3.10;;;1.40;;
64894;SDS011;51588;53.702;10.208;2022-10-16T14:13:15;4.30;;;1.90;;
64894;SDS011;51588;53.702;10.208;2022-10-16T14:15:45;4.13;;;1.40;;
64894;SDS011;51588;53.702;10.208;2022-10-16T14:18:15;1.70;;;1.30;;
64894;SDS011;51588;53.702;10.208;2022-10-16T14:20:43;2.30;;;1.37;;
64894;SDS011;51588;53.702;10.208;2022-10-16T14:23:18;3.97;;;1.50;;
64894;SDS011;51588;53.702;10.208;2022-10-16T14:25:45;5.37;;;1.30;;
64894;SDS011;51588;53.702;10.208;2022-10-16T14:28:14;5.73;;;1.40;;
64894;SDS011;51588;53.702;10.208;2022-10-16T14:30:48;4.03;;;1.43;;
64894;SDS011;51588;53.702;10.208;2022-10-16T14:33:21;5.10;;;1.67;;
64894;SDS011;51588;53.702;10.208;2022-10-16T14:35:57;6.20;;;1.60;;
64894;SDS011;51588;53.702;10.208;2022-10-16T14:38:25;4.33;;;1.47;;
64894;SDS011;51588;53.702;10.208;2022-10-16T14:40:51;2.80;;;1.60;;
64894;SDS011;51588;53.702;10.208;2022-10-16T14:43:19;4.60;;;1.40;;
64894;SDS011;51588;53.702;10.208;2022-10-16T14:45:49;4.37;;;1.90;;